Atlantic - Newfoundland: Past 24 Hour Conditions

 

Nickerson Bank - 44251

11:00 PM AST 27 November 2014Buoy position: 46.45N 53.38W
This table is a summary of hourly weather conditions for the past 24 hours.
Date / Time
(AST)
Wind(knots) Wave height(m) Wave period(s) Pressure(kPa) Air tempC) Water tempC)
27 November 2014
23:00 WSW 27 gust 37 4.3 9.0 99.9 6 7
22:00 WSW 27 gust 37 3.7 8.0 99.9 7 7
21:00 N/A N/A N/A N/A N/A N/A
20:00 SW 23 gust 29 3.5 8.0 99.9 8 7
19:00 SW 23 gust 27 3.1 8.0 99.9 8 7
18:00 SSW 21 gust 23 3.1 8.0 99.9 8 7
17:00 SSW 21 gust 25 2.9 7.0 99.9 9 7
16:00 SSW 19 gust 25 2.7 7.0 99.9 9 7
15:00 SSW 23 gust 29 2.8 7.0 100.0 9 7
14:00 SSW 25 gust 33 2.6 7.0 99.9 10 7
13:00 S 23 gust 27 2.5 6.0 100.0 9 7
12:00 N/A N/A N/A N/A N/A N/A
11:00 S 19 gust 23 2.3 5.0 100.4 8 7
10:00 ESE 14 gust 18 2.1 9.0 100.7 6 7
9:00 ESE 18 gust 21 2.0 9.0 101.0 5 7
8:00 ESE 21 gust 25 1.8 10.0 101.1 4 7
7:00 ESE 18 gust 21 2.0 10.0 101.4 4 7
6:00 E 16 gust 23 1.9 10.0 101.6 4 7
5:00 E 12 gust 16 1.8 8.0 101.7 4 7
4:00 ENE 8 gust 10 1.9 10.0 101.9 4 6
3:00 NE 8 gust 12 2.2 10.0 101.9 4 6
2:00 N 8 gust 12 2.2 10.0 102.1 5 7
1:00 NNW 6 gust 8 2.2 9.0 102.1 5 7
0:00 NW 6 gust 8 2.1 9.0 102.2 5 7
26 November 2014
23:00 WNW 12 gust 14 2.3 10.0 102.3 5 7
 
Map of Atlantic - Newfoundland marine weather areas Southwestern Grand Banks - 44138 Banquereau - 44139 Tail of the Bank - 44140 Nickerson Bank - 44251 Northeast Burgeo Bank - 44255 Blanc-Sablon Airport Cap Whittle Chevery Natashquan Airport Heath Point Miscou Island Grand Étang Ingonish Beach North Mountain St.Paul Island J.A. Douglas McCurdy Sydney Airport Charlottetown Airport East Point North Cape Argentia Bonavista Burgeo Cape Race Corner Brook Daniel's Harbour Englee Ferolle Point La Scie Port aux Basques Rocky Harbour Sagona Island St. Anthony Airport St. John's Int'l Airport St. Lawrence Stephenville Airport Twillingate Winterland Wreckhouse Cartwright Airport Mary's Harbour Grates Cove Pool's Island Marticot Island Long Pond Îles de la Madeleine Airport
Legend: buoyBuoy land stationLand Station